createdAt,value
2023-05-13T00:02:16.332Z,100.00
2023-05-13T00:04:45.740Z,100.00
2023-05-13T00:07:14.683Z,100.00
2023-05-13T00:09:43.768Z,100.00
2023-05-13T00:12:12.825Z,100.00
2023-05-13T00:14:41.821Z,100.00
2023-05-13T00:17:14.677Z,100.00
2023-05-13T00:19:43.437Z,100.00
2023-05-13T00:22:12.296Z,100.00
2023-05-13T00:24:41.280Z,100.00
2023-05-13T00:27:11.479Z,100.00
2023-05-13T00:29:40.497Z,100.00
2023-05-13T00:32:09.562Z,100.00
2023-05-13T00:34:39.478Z,100.00
2023-05-13T00:37:10.550Z,100.00
2023-05-13T00:39:39.685Z,100.00
2023-05-13T00:42:11.300Z,100.00
2023-05-13T00:44:40.939Z,100.00
2023-05-13T00:47:12.478Z,100.00
2023-05-13T00:49:42.572Z,100.00
2023-05-13T00:52:11.843Z,100.00
2023-05-13T00:54:40.997Z,100.00
2023-05-13T00:57:10.084Z,100.00
2023-05-13T00:59:38.957Z,100.00
2023-05-13T01:02:11.640Z,100.00
2023-05-13T01:04:46.024Z,100.00
2023-05-13T01:07:22.247Z,100.00
2023-05-13T01:09:57.262Z,100.00
2023-05-13T01:12:32.938Z,100.00
2023-05-13T01:15:06.825Z,100.00
2023-05-13T01:17:41.820Z,100.00
2023-05-13T01:20:13.080Z,100.00
2023-05-13T01:22:43.188Z,100.00
2023-05-13T01:25:12.351Z,100.00
2023-05-13T01:27:41.944Z,100.00
2023-05-13T01:30:13.090Z,100.00
2023-05-13T01:32:42.532Z,100.00
2023-05-13T01:35:12.611Z,100.00
2023-05-13T01:37:46.973Z,100.00
2023-05-13T01:40:31.122Z,100.00
2023-05-13T01:43:04.303Z,100.00
2023-05-13T01:45:33.624Z,100.00
2023-05-13T01:48:03.434Z,100.00
2023-05-13T01:50:42.719Z,100.00
2023-05-13T01:53:13.562Z,100.00
2023-05-13T01:55:42.553Z,100.00
2023-05-13T01:58:11.718Z,100.00
2023-05-13T02:00:41.701Z,100.00
2023-05-13T02:03:10.862Z,100.00
2023-05-13T02:05:39.972Z,100.00
2023-05-13T02:08:10.635Z,100.00
2023-05-13T02:10:41.808Z,100.00
2023-05-13T02:13:11.001Z,100.00
2023-05-13T02:15:41.223Z,100.00
2023-05-13T02:18:10.217Z,100.00
2023-05-13T02:20:39.274Z,100.00
2023-05-13T02:23:09.562Z,100.00
2023-05-13T02:25:38.261Z,100.00
2023-05-13T02:28:08.750Z,100.00
2023-05-13T02:30:37.761Z,100.00
2023-05-13T02:33:08.635Z,100.00
2023-05-13T02:35:37.566Z,100.00
2023-05-13T02:38:07.121Z,100.00
2023-05-13T02:40:36.445Z,100.00
2023-05-13T02:43:05.755Z,100.00
2023-05-13T02:45:58.654Z,100.00
2023-05-13T02:48:28.099Z,100.00
2023-05-13T02:50:57.090Z,100.00
2023-05-13T02:53:26.141Z,100.00
2023-05-13T02:55:58.373Z,100.00
2023-05-13T02:58:28.577Z,100.00
2023-05-13T03:00:59.557Z,100.00
2023-05-13T03:03:29.298Z,100.00
2023-05-13T03:05:58.495Z,100.00
2023-05-13T03:08:27.451Z,100.00
2023-05-13T03:10:55.923Z,100.00
2023-05-13T03:13:24.848Z,100.00
2023-05-13T03:15:53.797Z,100.00
2023-05-13T03:18:24.182Z,100.00
2023-05-13T03:20:53.743Z,100.00
2023-05-13T03:23:22.556Z,100.00
2023-05-13T03:25:53.612Z,100.00
2023-05-13T03:28:22.598Z,100.00
2023-05-13T03:30:52.319Z,100.00
2023-05-13T03:33:21.622Z,100.00
2023-05-13T03:35:52.077Z,100.00
2023-05-13T03:38:26.710Z,100.00
2023-05-13T03:40:55.836Z,100.00
2023-05-13T03:43:25.001Z,100.00
2023-05-13T03:45:58.893Z,100.00
2023-05-13T03:48:28.501Z,100.00
2023-05-13T03:51:01.666Z,100.00
2023-05-13T03:53:31.364Z,100.00
2023-05-13T03:56:00.306Z,100.00
2023-05-13T03:58:29.922Z,100.00
2023-05-13T04:01:00.170Z,100.00
2023-05-13T04:03:54.538Z,100.00
2023-05-13T04:06:25.122Z,100.00
2023-05-13T04:08:54.025Z,100.00
2023-05-13T04:11:22.904Z,100.00
2023-05-13T04:13:51.642Z,100.00
2023-05-13T04:16:21.455Z,100.00
2023-05-13T04:18:50.643Z,100.00
2023-05-13T04:21:19.543Z,100.00
2023-05-13T04:23:52.098Z,100.00
2023-05-13T04:26:21.730Z,100.00
2023-05-13T04:28:51.008Z,100.00
2023-05-13T04:31:21.432Z,100.00
2023-05-13T04:33:50.514Z,99.97
2023-05-13T04:36:20.207Z,97.26
2023-05-13T04:38:49.116Z,96.88
2023-05-13T04:41:21.356Z,96.51
2023-05-13T04:43:50.935Z,96.92
2023-05-13T04:46:20.036Z,97.19
2023-05-13T04:48:51.012Z,97.20
2023-05-13T04:51:20.812Z,97.59
2023-05-13T04:53:50.117Z,97.19
2023-05-13T04:56:21.920Z,98.67
2023-05-13T04:58:51.165Z,100.00
2023-05-13T05:01:22.347Z,98.86
2023-05-13T05:03:52.589Z,100.00
2023-05-13T05:06:21.985Z,100.00
2023-05-13T05:08:51.035Z,100.00
2023-05-13T05:11:21.467Z,100.00
2023-05-13T05:13:49.992Z,100.00
2023-05-13T05:16:19.639Z,100.00
2023-05-13T05:18:48.724Z,98.65
2023-05-13T05:21:18.790Z,95.22
2023-05-13T05:23:48.470Z,93.47
2023-05-13T05:26:17.413Z,91.76
2023-05-13T05:28:47.706Z,88.76
2023-05-13T05:31:18.679Z,89.18
2023-05-13T05:33:47.685Z,87.92
2023-05-13T05:36:16.635Z,90.87
2023-05-13T05:38:45.582Z,93.74
2023-05-13T05:41:14.922Z,93.63
2023-05-13T05:43:44.072Z,96.26
2023-05-13T05:46:14.659Z,94.66
2023-05-13T05:48:43.840Z,93.88
2023-05-13T05:51:12.774Z,93.44
2023-05-13T05:53:42.432Z,93.67
2023-05-13T05:56:13.720Z,92.74
2023-05-13T05:58:43.259Z,91.76
2023-05-13T06:01:13.775Z,89.32
2023-05-13T06:03:42.488Z,88.92
2023-05-13T06:06:11.758Z,88.45
2023-05-13T06:08:40.658Z,86.11
2023-05-13T06:11:11.452Z,83.69
2023-05-13T06:13:39.982Z,84.10
2023-05-13T06:16:09.012Z,80.70
2023-05-13T06:18:41.640Z,80.31
2023-05-13T06:21:10.634Z,80.32
2023-05-13T06:23:39.991Z,78.71
2023-05-13T06:26:08.929Z,80.63
2023-05-13T06:28:37.384Z,82.87
2023-05-13T06:31:06.451Z,82.63
2023-05-13T06:33:35.549Z,81.38
2023-05-13T06:36:06.746Z,81.89
2023-05-13T06:38:36.417Z,79.50
2023-05-13T06:41:06.322Z,78.77
2023-05-13T06:43:37.008Z,76.98
2023-05-13T06:46:15.716Z,76.40
2023-05-13T06:48:45.217Z,73.30
2023-05-13T06:51:15.603Z,72.96
2023-05-13T06:53:44.592Z,71.06
2023-05-13T06:56:13.537Z,69.09
2023-05-13T06:58:42.224Z,67.60
2023-05-13T07:01:11.233Z,61.34
2023-05-13T07:03:40.489Z,63.72
2023-05-13T07:06:09.634Z,62.15
2023-05-13T07:08:40.895Z,61.15
2023-05-13T07:11:09.885Z,60.39
2023-05-13T07:13:39.261Z,58.37
2023-05-13T07:16:08.734Z,56.19
2023-05-13T07:18:37.706Z,53.96
2023-05-13T07:21:06.964Z,50.12
2023-05-13T07:23:36.128Z,50.20
2023-05-13T07:26:09.346Z,48.21
2023-05-13T07:28:37.972Z,47.28
2023-05-13T07:31:07.113Z,48.36
2023-05-13T07:33:37.332Z,46.92
2023-05-13T07:36:07.195Z,47.33
2023-05-13T07:38:36.475Z,45.96
2023-05-13T07:41:07.131Z,44.26
2023-05-13T07:43:35.509Z,43.41
2023-05-13T07:46:04.389Z,44.70
2023-05-13T07:48:33.771Z,44.84
2023-05-13T07:51:03.396Z,44.14
2023-05-13T07:53:32.442Z,42.23
2023-05-13T07:56:01.405Z,45.11
2023-05-13T07:58:31.417Z,42.22
2023-05-13T08:01:00.319Z,43.60
2023-05-13T08:03:29.396Z,43.01
2023-05-13T08:05:58.648Z,41.60
2023-05-13T08:08:27.654Z,40.62
2023-05-13T08:10:56.130Z,42.33
2023-05-13T08:13:25.750Z,40.91
2023-05-13T08:15:56.322Z,42.21
2023-05-13T08:18:25.422Z,44.43
2023-05-13T08:20:54.289Z,42.03
2023-05-13T08:23:40.338Z,42.76
2023-05-13T08:26:12.607Z,43.15
2023-05-13T08:28:42.566Z,43.99
2023-05-13T08:31:14.312Z,40.58
2023-05-13T08:33:46.088Z,42.19
2023-05-13T08:36:16.481Z,41.38
2023-05-13T08:38:45.767Z,40.85
2023-05-13T08:41:15.378Z,38.32
2023-05-13T08:43:44.586Z,39.52
2023-05-13T08:46:17.925Z,39.64
2023-05-13T08:48:47.506Z,41.38
2023-05-13T08:51:16.564Z,42.32
2023-05-13T08:53:45.887Z,41.82
2023-05-13T08:56:14.922Z,38.94
2023-05-13T08:58:43.536Z,39.35
2023-05-13T09:01:12.657Z,40.22
2023-05-13T09:03:57.418Z,40.07
2023-05-13T09:06:26.426Z,41.24
2023-05-13T09:08:56.179Z,41.23
2023-05-13T09:11:25.363Z,40.60
2023-05-13T09:14:00.476Z,41.50
2023-05-13T09:16:30.572Z,41.36
2023-05-13T09:19:01.482Z,38.96
2023-05-13T09:21:32.728Z,37.95
2023-05-13T09:24:10.341Z,35.58
2023-05-13T09:26:43.468Z,35.92
2023-05-13T09:29:23.830Z,34.10
2023-05-13T09:31:54.204Z,35.59
2023-05-13T09:34:31.797Z,34.81
2023-05-13T09:37:05.228Z,32.80
2023-05-13T09:39:35.874Z,32.65
2023-05-13T09:42:05.687Z,31.79
2023-05-13T09:44:35.311Z,30.89
2023-05-13T09:47:04.886Z,29.76
2023-05-13T09:49:35.043Z,28.84
2023-05-13T09:52:10.098Z,27.60
2023-05-13T09:54:39.474Z,28.56
2023-05-13T09:57:08.449Z,29.65
2023-05-13T09:59:37.453Z,27.39
2023-05-13T10:02:07.882Z,25.50
2023-05-13T10:04:37.586Z,25.69
2023-05-13T10:07:07.489Z,27.79
2023-05-13T10:09:37.952Z,26.54
2023-05-13T10:12:09.889Z,24.30
2023-05-13T10:14:39.337Z,23.99
2023-05-13T10:17:09.624Z,25.69
2023-05-13T10:19:39.542Z,26.12
2023-05-13T10:22:08.695Z,27.10
2023-05-13T10:24:39.218Z,28.01
2023-05-13T10:27:08.609Z,30.27
2023-05-13T10:29:39.246Z,29.11
2023-05-13T10:32:09.730Z,28.73
2023-05-13T10:34:39.788Z,28.41
2023-05-13T10:37:38.812Z,31.09
2023-05-13T10:40:33.942Z,32.29
2023-05-13T10:43:12.634Z,32.67
2023-05-13T10:45:41.594Z,32.83
2023-05-13T10:48:13.650Z,33.84
2023-05-13T10:50:53.240Z,29.69
2023-05-13T10:53:25.373Z,31.12
2023-05-13T10:55:55.466Z,30.89
2023-05-13T10:58:30.041Z,32.70
2023-05-13T11:01:15.044Z,32.91
2023-05-13T11:03:46.651Z,30.41
2023-05-13T11:06:19.638Z,27.45
2023-05-13T11:08:49.710Z,28.85
2023-05-13T11:11:18.815Z,29.87
2023-05-13T11:13:47.611Z,30.88
2023-05-13T11:16:16.586Z,32.16
2023-05-13T11:18:46.075Z,33.12
2023-05-13T11:21:15.284Z,33.42
2023-05-13T11:23:58.127Z,34.26
2023-05-13T11:26:27.262Z,34.50
2023-05-13T11:29:00.681Z,34.18
2023-05-13T11:31:30.570Z,35.44
2023-05-13T11:34:10.561Z,33.29
2023-05-13T11:36:41.093Z,28.67
2023-05-13T11:39:13.599Z,23.91
2023-05-13T11:41:43.938Z,23.56
2023-05-13T11:44:14.979Z,22.79
2023-05-13T11:46:53.856Z,23.77
2023-05-13T11:49:33.639Z,25.78
2023-05-13T11:52:03.105Z,26.89
2023-05-13T11:54:33.529Z,28.28
2023-05-13T11:57:02.786Z,30.09
2023-05-13T11:59:41.720Z,30.74
2023-05-13T12:02:16.879Z,31.66
2023-05-13T12:04:45.868Z,32.97
2023-05-13T12:07:15.249Z,32.37
2023-05-13T12:09:45.975Z,31.99
2023-05-13T12:12:14.923Z,29.96
2023-05-13T12:14:44.588Z,25.80
2023-05-13T12:17:14.161Z,27.51
2023-05-13T12:19:44.164Z,28.78
2023-05-13T12:22:13.191Z,26.42
2023-05-13T12:24:42.181Z,25.07
2023-05-13T12:27:13.179Z,21.57
2023-05-13T12:29:43.405Z,19.66
2023-05-13T12:32:13.119Z,19.66
2023-05-13T12:34:41.676Z,19.23
2023-05-13T12:37:12.540Z,17.99
2023-05-13T12:39:42.798Z,18.25
2023-05-13T12:42:19.271Z,18.63
2023-05-13T12:44:48.509Z,18.27
2023-05-13T12:47:20.263Z,18.00
2023-05-13T12:49:55.161Z,17.88
2023-05-13T12:52:24.174Z,18.52
2023-05-13T12:54:53.124Z,20.60
2023-05-13T12:57:24.477Z,20.57
2023-05-13T12:59:53.467Z,20.11
2023-05-13T13:02:22.294Z,20.29
2023-05-13T13:04:50.883Z,21.70
2023-05-13T13:07:19.876Z,23.39
2023-05-13T13:09:48.900Z,24.52
2023-05-13T13:12:17.933Z,24.82
2023-05-13T13:14:48.291Z,24.87
2023-05-13T13:17:17.358Z,24.64
2023-05-13T13:19:45.878Z,22.13
2023-05-13T13:22:14.858Z,21.75
2023-05-13T13:24:43.761Z,21.27
2023-05-13T13:27:13.270Z,23.46
2023-05-13T13:29:42.256Z,23.36
2023-05-13T13:32:13.461Z,22.50
2023-05-13T13:34:42.034Z,22.72
2023-05-13T13:37:11.003Z,22.16
2023-05-13T13:39:41.113Z,22.55
2023-05-13T13:42:10.038Z,22.67
2023-05-13T13:44:39.635Z,22.72
2023-05-13T13:47:08.681Z,21.93
2023-05-13T13:49:38.673Z,20.97
2023-05-13T13:52:08.009Z,20.29
2023-05-13T13:54:37.351Z,20.61
2023-05-13T13:57:07.096Z,20.94
2023-05-13T13:59:36.094Z,21.52
2023-05-13T14:02:05.981Z,22.40
2023-05-13T14:04:36.026Z,24.39
2023-05-13T14:07:08.109Z,23.53
2023-05-13T14:09:37.080Z,23.55
2023-05-13T14:12:07.270Z,23.04
2023-05-13T14:14:36.161Z,22.99
2023-05-13T14:17:05.218Z,21.86
2023-05-13T14:19:33.687Z,21.74
2023-05-13T14:22:02.616Z,21.75
2023-05-13T14:24:33.218Z,21.82
2023-05-13T14:27:02.297Z,22.43
2023-05-13T14:29:31.335Z,23.07
2023-05-13T14:32:02.277Z,23.38
2023-05-13T14:34:31.012Z,22.29
2023-05-13T14:37:00.081Z,21.96
2023-05-13T14:39:30.495Z,21.19
2023-05-13T14:42:04.024Z,20.73
2023-05-13T14:44:33.788Z,23.01
2023-05-13T14:47:04.978Z,23.34
2023-05-13T14:49:33.499Z,23.59
2023-05-13T14:52:02.421Z,22.75
2023-05-13T14:54:35.771Z,23.51
2023-05-13T14:57:07.918Z,23.05
2023-05-13T14:59:37.094Z,23.30
2023-05-13T15:02:06.554Z,22.66
2023-05-13T15:04:35.135Z,21.71
2023-05-13T15:07:04.779Z,21.20
2023-05-13T15:09:33.729Z,21.18
2023-05-13T15:12:02.630Z,21.19
2023-05-13T15:14:33.044Z,21.22
2023-05-13T15:17:02.161Z,21.67
2023-05-13T15:19:31.720Z,21.01
2023-05-13T15:22:00.690Z,20.18
2023-05-13T15:24:29.930Z,20.30
2023-05-13T15:26:59.120Z,20.33
2023-05-13T15:29:28.728Z,20.71
2023-05-13T15:31:59.149Z,21.35
2023-05-13T15:34:28.297Z,24.00
2023-05-13T15:36:57.562Z,25.48
2023-05-13T15:39:26.802Z,27.41
2023-05-13T15:41:56.353Z,28.65
2023-05-13T15:44:25.321Z,30.21
2023-05-13T15:46:54.156Z,30.06
2023-05-13T15:49:24.744Z,32.47
2023-05-13T15:51:55.720Z,33.74
2023-05-13T15:54:24.914Z,34.45
2023-05-13T15:56:55.800Z,35.62
2023-05-13T15:59:25.444Z,36.29
2023-05-13T16:01:54.139Z,37.45
2023-05-13T16:04:24.814Z,37.82
2023-05-13T16:06:53.859Z,37.62
2023-05-13T16:09:22.912Z,37.15
2023-05-13T16:11:51.877Z,35.15
2023-05-13T16:14:20.834Z,34.41
2023-05-13T16:16:49.575Z,35.17
2023-05-13T16:19:18.908Z,34.61
2023-05-13T16:21:49.704Z,33.12
2023-05-13T16:24:19.094Z,31.31
2023-05-13T16:26:48.434Z,29.10
2023-05-13T16:29:17.522Z,28.15
2023-05-13T16:31:46.180Z,26.91
2023-05-13T16:34:15.356Z,25.73
2023-05-13T16:36:44.449Z,25.02
2023-05-13T16:39:15.014Z,23.54
2023-05-13T16:41:44.092Z,23.30
2023-05-13T16:44:13.181Z,22.26
2023-05-13T16:46:41.898Z,22.59
2023-05-13T16:49:10.826Z,22.39
2023-05-13T16:51:39.884Z,22.57
2023-05-13T16:54:09.087Z,22.42
2023-05-13T16:56:39.563Z,22.64
2023-05-13T16:59:10.100Z,22.88
2023-05-13T17:01:38.756Z,22.63
2023-05-13T17:04:07.841Z,23.08
2023-05-13T17:06:37.023Z,23.13
2023-05-13T17:09:07.253Z,23.20
2023-05-13T17:11:38.918Z,23.10
2023-05-13T17:14:08.096Z,23.33
2023-05-13T17:16:37.130Z,24.38
2023-05-13T17:19:06.355Z,24.82
2023-05-13T17:21:35.333Z,25.72
2023-05-13T17:24:04.484Z,30.87
2023-05-13T17:26:34.583Z,40.04
2023-05-13T17:29:06.212Z,42.82
2023-05-13T17:31:35.179Z,45.65
2023-05-13T17:34:04.403Z,49.71
2023-05-13T17:36:34.313Z,51.06
2023-05-13T17:39:03.504Z,53.15
2023-05-13T17:41:32.565Z,55.63
2023-05-13T17:44:01.586Z,67.08
2023-05-13T17:46:31.651Z,74.19
2023-05-13T17:49:00.694Z,69.42
2023-05-13T17:51:29.618Z,75.31
2023-05-13T17:53:58.629Z,85.57
2023-05-13T17:56:27.639Z,67.63
2023-05-13T17:58:56.278Z,79.68
2023-05-13T18:01:25.208Z,73.05
2023-05-13T18:03:55.641Z,72.93
2023-05-13T18:06:24.275Z,72.71
2023-05-13T18:08:53.158Z,73.39
2023-05-13T18:11:22.886Z,73.88
2023-05-13T18:13:51.884Z,73.59
2023-05-13T18:16:21.185Z,77.34
2023-05-13T18:18:50.253Z,77.75
2023-05-13T18:21:20.851Z,80.75
2023-05-13T18:23:49.885Z,81.88
2023-05-13T18:26:18.793Z,82.94
2023-05-13T18:28:47.513Z,84.16
2023-05-13T18:31:16.623Z,85.27
2023-05-13T18:33:45.690Z,88.64
2023-05-13T18:36:14.707Z,87.97
2023-05-13T18:38:46.038Z,92.85
2023-05-13T18:41:15.179Z,91.53
2023-05-13T18:43:43.807Z,93.24
2023-05-13T18:46:12.947Z,92.02
2023-05-13T18:48:41.858Z,94.97
2023-05-13T18:51:11.625Z,95.62
2023-05-13T18:53:42.868Z,94.47
2023-05-13T18:56:13.381Z,93.17
2023-05-13T18:58:42.127Z,93.93
2023-05-13T19:01:12.654Z,96.15
2023-05-13T19:03:42.044Z,99.92
2023-05-13T19:06:11.134Z,98.84
2023-05-13T19:08:40.296Z,96.57
2023-05-13T19:11:09.611Z,100.00
2023-05-13T19:13:46.705Z,100.00
2023-05-13T19:16:16.910Z,100.00
2023-05-13T19:18:46.002Z,100.00
2023-05-13T19:21:15.036Z,98.44
2023-05-13T19:23:43.999Z,100.00
2023-05-13T19:26:13.029Z,100.00
2023-05-13T19:28:43.920Z,100.00
2023-05-13T19:31:13.163Z,100.00
2023-05-13T19:33:44.658Z,100.00
2023-05-13T19:36:14.999Z,100.00
2023-05-13T19:38:44.269Z,100.00
2023-05-13T19:41:13.261Z,100.00
2023-05-13T19:43:43.316Z,100.00
2023-05-13T19:46:12.628Z,100.00
2023-05-13T19:48:41.602Z,100.00
2023-05-13T19:51:10.624Z,100.00
2023-05-13T19:53:39.596Z,100.00
2023-05-13T19:56:08.696Z,100.00
2023-05-13T19:58:37.316Z,100.00
2023-05-13T20:01:07.879Z,100.00
2023-05-13T20:03:37.035Z,99.38
2023-05-13T20:06:06.158Z,100.00
2023-05-13T20:08:36.068Z,100.00
2023-05-13T20:11:04.960Z,100.00
2023-05-13T20:13:33.527Z,100.00
2023-05-13T20:16:02.829Z,100.00
2023-05-13T20:18:33.470Z,100.00
2023-05-13T20:21:02.614Z,100.00
2023-05-13T20:23:31.706Z,100.00
2023-05-13T20:26:01.010Z,100.00
2023-05-13T20:28:29.730Z,100.00
2023-05-13T20:30:58.765Z,100.00
2023-05-13T20:33:27.805Z,100.00
2023-05-13T20:35:58.620Z,100.00
2023-05-13T20:38:27.584Z,100.00
2023-05-13T20:40:56.290Z,100.00
2023-05-13T20:43:25.272Z,100.00
2023-05-13T20:45:54.238Z,100.00
2023-05-13T20:48:23.263Z,100.00
2023-05-13T20:51:03.714Z,100.00
2023-05-13T20:53:33.242Z,100.00
2023-05-13T20:56:03.663Z,100.00
2023-05-13T20:58:32.297Z,100.00
2023-05-13T21:01:02.930Z,100.00
2023-05-13T21:03:32.092Z,100.00
2023-05-13T21:06:02.504Z,100.00
2023-05-13T21:08:31.088Z,100.00
2023-05-13T21:11:00.116Z,100.00
2023-05-13T21:13:28.658Z,100.00
2023-05-13T21:15:57.651Z,100.00
2023-05-13T21:18:26.773Z,100.00
2023-05-13T21:20:55.776Z,100.00
2023-05-13T21:23:26.128Z,100.00
2023-05-13T21:25:54.597Z,100.00
2023-05-13T21:28:24.136Z,100.00
2023-05-13T21:30:53.182Z,100.00
2023-05-13T21:33:22.010Z,100.00
2023-05-13T21:35:51.747Z,100.00
2023-05-13T21:38:20.685Z,100.00
2023-05-13T21:40:50.727Z,100.00
2023-05-13T21:43:19.300Z,100.00
2023-05-13T21:45:49.717Z,100.00
2023-05-13T21:48:19.380Z,100.00
2023-05-13T21:50:48.556Z,100.00
2023-05-13T21:53:17.490Z,100.00
2023-05-13T21:55:45.986Z,100.00
2023-05-13T21:58:16.394Z,100.00
2023-05-13T22:00:46.070Z,100.00
2023-05-13T22:03:15.052Z,100.00
2023-05-13T22:05:44.866Z,100.00
2023-05-13T22:08:13.871Z,100.00
2023-05-13T22:10:42.447Z,100.00
2023-05-13T22:13:11.503Z,100.00
2023-05-13T22:15:42.124Z,100.00
2023-05-13T22:18:11.414Z,100.00
2023-05-13T22:20:40.405Z,100.00
2023-05-13T22:23:09.424Z,100.00
2023-05-13T22:25:38.105Z,100.00
2023-05-13T22:28:08.032Z,100.00
2023-05-13T22:30:37.065Z,100.00
2023-05-13T22:33:07.607Z,100.00
2023-05-13T22:35:37.247Z,100.00
2023-05-13T22:38:06.251Z,100.00
2023-05-13T22:40:35.292Z,100.00
2023-05-13T22:43:04.317Z,100.00
2023-05-13T22:45:33.285Z,100.00
2023-05-13T22:48:02.230Z,100.00
2023-05-13T22:50:32.689Z,100.00
2023-05-13T22:53:01.879Z,100.00
2023-05-13T22:55:30.516Z,100.00
2023-05-13T22:57:59.626Z,100.00
2023-05-13T23:00:28.690Z,100.00
2023-05-13T23:02:57.825Z,100.00
2023-05-13T23:05:27.087Z,100.00
2023-05-13T23:07:57.000Z,100.00
2023-05-13T23:10:26.453Z,100.00
2023-05-13T23:12:55.488Z,100.00
2023-05-13T23:15:24.347Z,100.00
2023-05-13T23:17:53.360Z,100.00
2023-05-13T23:20:22.798Z,100.00
2023-05-13T23:22:51.681Z,100.00
2023-05-13T23:25:22.116Z,100.00
2023-05-13T23:27:52.324Z,100.00
2023-05-13T23:30:21.657Z,100.00
2023-05-13T23:32:51.135Z,100.00
2023-05-13T23:35:20.059Z,100.00
2023-05-13T23:37:48.657Z,100.00
2023-05-13T23:40:17.849Z,100.00
2023-05-13T23:42:48.250Z,100.00
2023-05-13T23:45:17.232Z,100.00
2023-05-13T23:47:46.285Z,100.00
2023-05-13T23:50:15.230Z,100.00
2023-05-13T23:52:44.352Z,100.00
2023-05-13T23:55:13.449Z,100.00
2023-05-13T23:57:42.497Z,100.00
